Flight Track Log - Related Links

Times and Time Zones

All times are in EDT time to prevent confusion due to time zone crossing. See the TSS5 flight status page for this flight to view local times or setup timezone preferences in your user account.

Time Position Orientation Groundspeed Altitude Reporting Facility
EDT Latitude Longitude Course Direction KTS MPH feet Rate Location/Type
Tue 08:55:09 PM 40.8933 -90.5647 140° Southeast 105 121 3,800  Level Chicago Center
Tue 08:56:11 PM 40.8706 -90.5392 140° Southeast 106 122 4,700 774 Climbing Chicago Center
Tue 08:57:13 PM 40.8439 -90.5106 141° Southeast 113 130 5,400 726 Climbing Chicago Center
Tue 08:58:15 PM 40.8167 -90.4753 136° Southeast 124 143 6,200 774 Climbing Chicago Center
Tue 08:59:17 PM 40.7792 -90.4367 142° Southeast 137 158 7,000 435 Climbing Chicago Center
Tue 09:00:19 PM 40.7475 -90.3989 138° Southeast 145 167 7,100 48 Climbing Chicago Center
Tue 09:01:21 PM 40.7106 -90.3589 141° Southeast 158 182 7,100  Level Chicago Center
Tue 09:02:23 PM 40.6736 -90.3172 139° Southeast 168 193 7,100 48 Level Chicago Center
Tue 09:03:25 PM 40.6375 -90.2772 140° Southeast 170 196 7,200 48 Climbing Chicago Center
Tue 09:04:27 PM 40.6019 -90.2381 140° Southeast 169 194 7,200  Level Chicago Center
Tue 09:05:30 PM 40.5583 -90.1903 140° Southeast 170 196 7,200  Level Chicago Center
Tue 09:06:32 PM 40.5225 -90.1492 139° Southeast 171 197 7,200  Level Chicago Center
Tue 09:07:34 PM 40.4869 -90.1078 138° Southeast 171 197 7,200  Level Chicago Center
Tue 09:08:36 PM 40.4514 -90.0658 138° Southeast 173 199 7,200 -44 Level Chicago Center
Tue 09:09:50 PM 40.4064 -90.0194 142° Southeast 173 199 7,100  Descending Chicago Center
Tue 09:10:52 PM 40.3631 -89.9714 140° Southeast 172 198 7,200  Climbing Chicago Center
Tue 09:11:34 PM 40.3419 -89.9481 140° Southeast 171 197 7,100 -58 Descending Kansas City Center
Tue 09:12:35 PM 40.3061 -89.9092 140° Southeast 169 194 7,100  Level Kansas City Center
Tue 09:13:37 PM 40.2692 -89.8689 140° Southeast 170 196 7,100  Level Kansas City Center
Tue 09:14:39 PM 40.2253 -89.8219 141° Southeast 171 197 7,100  Level Kansas City Center
Tue 09:15:40 PM 40.1894 -89.7819 140° Southeast 170 196 7,100  Level Kansas City Center
Tue 09:16:42 PM 40.1528 -89.7417 140° Southeast 170 196 7,100  Level Kansas City Center
Tue 09:17:43 PM 40.1164 -89.7028 141° Southeast 171 197 7,100  Level Kansas City Center
Tue 09:18:45 PM 40.0794 -89.6639 141° Southeast 170 196 7,100  Level Kansas City Center
Tue 09:19:46 PM 40.0433 -89.6236 140° Southeast 170 196 7,100  Level Kansas City Center
Tue 09:20:48 PM 40.0058 -89.5828 140° Southeast 173 199 7,100  Level Kansas City Center
Tue 09:21:49 PM 39.9689 -89.5431 141° Southeast 173 199 7,100  Level Kansas City Center
Tue 09:22:51 PM 39.9242 -89.4947 140° Southeast 173 199 7,100  Level Kansas City Center
Tue 09:23:40 PM 39.8936 -89.4622 141° Southeast 174 200 7,100  Level Kansas City Center
Tue 09:24:41 PM 39.8556 -89.4222 141° Southeast 175 201 7,100  Level Kansas City Center
Tue 09:25:43 PM 39.8186 -89.3808 139° Southeast 175 201 7,100  Level Kansas City Center
Tue 09:26:44 PM 39.7814 -89.3408 140° Southeast 175 201 7,100  Level Kansas City Center
Tue 09:27:46 PM 39.7439 -89.3019 141° Southeast 174 200 7,100  Level Kansas City Center
Tue 09:28:47 PM 39.7064 -89.2622 141° Southeast 174 200 7,100  Level Kansas City Center
Tue 09:29:49 PM 39.6697 -89.2231 141° Southeast 173 199 7,100  Level Kansas City Center
Tue 09:30:50 PM 39.6311 -89.1847 143° Southeast 173 199 7,100  Level Kansas City Center
Tue 09:31:52 PM 39.5878 -89.1364 139° Southeast 172 198 7,100  Level Kansas City Center
Tue 09:32:53 PM 39.5514 -89.0961 140° Southeast 172 198 7,100  Level Kansas City Center
Tue 09:33:55 PM 39.5144 -89.0564 140° Southeast 172 198 7,100  Level Kansas City Center
Tue 09:34:56 PM 39.4772 -89.0172 141° Southeast 172 198 7,100  Level Kansas City Center
Tue 09:35:58 PM 39.4394 -88.9761 140° Southeast 175 201 7,100  Level Kansas City Center
Tue 09:36:59 PM 39.4028 -88.9356 139° Southeast 174 200 7,100  Level Kansas City Center
Tue 09:38:00 PM 39.3650 -88.8947 140° Southeast 176 203 7,100  Level Kansas City Center
Tue 09:39:02 PM 39.3261 -88.8558 142° Southeast 176 203 7,100  Level Kansas City Center
Tue 09:40:03 PM 39.2886 -88.8150 140° Southeast 177 204 7,100  Level Kansas City Center
Tue 09:41:04 PM 39.2431 -88.7675 141° Southeast 176 203 7,100  Level Kansas City Center
Tue 09:42:06 PM 39.2044 -88.7272 141° Southeast 177 204 7,100  Level Kansas City Center
Tue 09:43:07 PM 39.1664 -88.6867 140° Southeast 178 205 7,100  Level Kansas City Center
Tue 09:44:08 PM 39.1297 -88.6475 140° Southeast 179 206 7,100  Level Kansas City Center
Tue 09:45:10 PM 39.0864 -88.6008 140° Southeast 179 206 7,100  Level Kansas City Center
Tue 09:46:11 PM 39.0542 -88.5661 140° Southeast 176 203 7,100  Level Kansas City Center
Tue 09:47:12 PM 39.0147 -88.5272 143° Southeast 177 204 7,100  Level Kansas City Center
Tue 09:48:13 PM 38.9664 -88.4772 141° Southeast 183 211 7,100  Level Kansas City Center
Tue 09:49:15 PM 38.9275 -88.4375 142° Southeast 181 208 7,100  Level Kansas City Center
Tue 09:50:16 PM 38.8878 -88.3967 141° Southeast 180 207 7,100  Level Kansas City Center
Tue 09:51:17 PM 38.8503 -88.3556 140° Southeast 179 206 7,100  Level Kansas City Center
Tue 09:52:18 PM 38.8117 -88.3169 142° Southeast 177 204 7,100  Level Kansas City Center
Tue 09:53:19 PM 38.7733 -88.2750 140° Southeast 178 205 7,100  Level Kansas City Center
Tue 09:54:21 PM 38.7339 -88.2358 142° Southeast 179 206 7,100  Level Kansas City Center
Tue 09:55:22 PM 38.6944 -88.1961 142° Southeast 179 206 7,100  Level Kansas City Center
Tue 09:56:23 PM 38.6558 -88.1550 140° Southeast 180 207 7,100  Level Kansas City Center
Tue 09:57:24 PM 38.6158 -88.1147 142° Southeast 181 208 7,100  Level Kansas City Center
Tue 09:57:57 PM 38.5922 -88.0914 142° Southeast 181 208 7,100 -64 Level Indianapolis Center
Tue 09:58:58 PM 38.5531 -88.0500 140° Southeast 182 209 7,000 -295 Descending Indianapolis Center
Tue 09:59:59 PM 38.5117 -88.0056 140° Southeast 188 216 6,500 -488 Descending Indianapolis Center
Tue 10:01:01 PM 38.4681 -87.9631 143° Southeast 194 223 6,000 -537 Descending Indianapolis Center
Tue 10:02:02 PM 38.4236 -87.9172 141° Southeast 200 230 5,400 -541 Descending Indianapolis Center
Tue 10:03:03 PM 38.3797 -87.8744 143° Southeast 200 230 4,900 -492 Descending Indianapolis Center
Tue 10:04:04 PM 38.3356 -87.8303 142° Southeast 200 230 4,400 -537 Descending Indianapolis Center
Tue 10:05:06 PM 38.2833 -87.7781 142° Southeast 200 230 3,800 -537 Descending Indianapolis Center
Tue 10:06:07 PM 38.2408 -87.7336 141° Southeast 199 229 3,300 -541 Descending Indianapolis Center
Tue 10:07:08 PM 38.1986 -87.6892 140° Southeast 198 228 2,700 -443 Descending Indianapolis Center
Tue 10:08:09 PM 38.1628 -87.6408 133° Southeast 194 223 2,400 -195 Descending Indianapolis Center
Tue 10:09:11 PM 38.1333 -87.5936 128° Southeast 184 212 2,300 -146 Descending Indianapolis Center
Tue 10:10:12 PM 38.1100 -87.5614 133° Southeast 153 176 2,100 -197 Descending Indianapolis Center

Login

Don't have an account? Register now (free) for customized features, flight alerts, and more!